Time;durP1;ratioP1;P1;durP2;ratioP2;P2;SDS_P1;SDS_P2;PMS_P1;PMS_P2;Temp;Humidity;BMP_temperature;BMP_pressure;BME280_temperature;BME280_humidity;BME280_pressure;Samples;Min_cycle;Max_cycle;Signal;HPM_P1;HPM_P2
2023/12/05 00:01:18;;;;;;;7.43;6.23;;;4.70;99.90;;;;;;5115882;28;20199;-73
2023/12/05 00:03:44;;;;;;;8.47;6.10;;;4.70;99.90;;;;;;5116180;28;20210;-73
2023/12/05 00:09:31;;;;;;;7.13;6.43;;;4.50;99.90;;;;;;5095228;28;20670;-73
2023/12/05 00:11:56;;;;;;;7.63;6.13;;;4.50;99.90;;;;;;5095235;28;20465;-73
2023/12/05 00:14:22;;;;;;;6.43;5.83;;;4.50;99.90;;;;;;5095459;28;20176;-73
2023/12/05 00:16:48;;;;;;;7.70;5.80;;;4.40;99.90;;;;;;5097748;28;20161;-74
2023/12/05 00:19:14;;;;;;;5.77;5.23;;;4.50;99.90;;;;;;5114978;28;20229;-74
2023/12/05 00:21:39;;;;;;;5.87;5.13;;;4.50;99.90;;;;;;5115450;28;20415;-73
2023/12/05 00:24:05;;;;;;;6.40;5.80;;;4.50;99.90;;;;;;5114965;28;20199;-73
2023/12/05 00:26:32;;;;;;;4.93;4.43;;;4.50;99.90;;;;;;5115255;28;20169;-74
2023/12/05 00:28:58;;;;;;;6.47;5.80;;;4.40;99.90;;;;;;5115540;28;20192;-73
2023/12/05 00:31:23;;;;;;;6.97;6.33;;;4.50;99.90;;;;;;5115258;28;20877;-73
2023/12/05 00:33:49;;;;;;;6.43;5.30;;;4.40;99.90;;;;;;5115492;28;20165;-73
2023/12/05 00:36:14;;;;;;;7.20;5.90;;;4.30;99.90;;;;;;5115183;28;20289;-73
2023/12/05 00:38:40;;;;;;;7.03;5.80;;;4.50;99.90;;;;;;5115052;28;20526;-73
2023/12/05 00:41:07;;;;;;;7.00;4.57;;;4.40;99.90;;;;;;5115129;28;20646;-73
2023/12/05 00:43:32;;;;;;;5.80;5.20;;;4.40;99.90;;;;;;5115067;27;20160;-73
2023/12/05 00:45:58;;;;;;;7.10;5.70;;;4.20;99.90;;;;;;5114941;28;20867;-73
2023/12/05 00:48:24;;;;;;;5.83;5.10;;;4.30;99.90;;;;;;5113622;28;20168;-73
2023/12/05 00:50:50;;;;;;;7.13;5.80;;;4.30;99.90;;;;;;5115014;28;20203;-73
2023/12/05 00:53:15;;;;;;;5.97;4.70;;;4.40;99.90;;;;;;5115127;28;20169;-73
2023/12/05 00:55:41;;;;;;;5.03;4.53;;;4.30;99.90;;;;;;5114848;28;20402;-73
2023/12/05 00:58:06;;;;;;;6.47;5.30;;;4.40;99.90;;;;;;5114738;28;20205;-73
2023/12/05 01:00:32;;;;;;;4.50;4.10;;;4.40;99.90;;;;;;5114557;28;20723;-73
2023/12/05 01:02:57;;;;;;;4.57;4.10;;;4.40;99.90;;;;;;5114984;28;20278;-73
2023/12/05 01:05:23;;;;;;;4.93;4.30;;;4.40;99.90;;;;;;5114695;28;20195;-73
2023/12/05 01:07:48;;;;;;;4.60;4.10;;;4.40;99.90;;;;;;5114807;28;20697;-73
2023/12/05 01:10:14;;;;;;;5.23;4.47;;;4.60;99.90;;;;;;5114299;28;20291;-73
2023/12/05 01:12:39;;;;;;;5.50;4.50;;;4.50;99.90;;;;;;5114597;28;20205;-73
2023/12/05 01:15:06;;;;;;;4.87;4.30;;;4.50;99.90;;;;;;5114560;28;20156;-73
2023/12/05 01:17:31;;;;;;;4.80;3.77;;;4.60;99.90;;;;;;5114543;28;20172;-73
2023/12/05 01:19:57;;;;;;;4.10;3.60;;;4.70;99.90;;;;;;5114263;28;20418;-73
2023/12/05 01:22:23;;;;;;;4.50;3.70;;;4.60;99.90;;;;;;5114324;28;20196;-73
2023/12/05 01:24:55;;;;;;;3.70;3.30;;;4.60;99.90;;;;;;5114486;28;20168;-73
2023/12/05 01:27:21;;;;;;;3.17;2.87;;;4.60;99.90;;;;;;5114139;28;20161;-73
2023/12/05 01:29:46;;;;;;;3.07;2.80;;;4.70;99.90;;;;;;5114429;28;20437;-74
2023/12/05 01:32:13;;;;;;;3.57;3.27;;;4.70;99.90;;;;;;5113519;28;20446;-73
2023/12/05 01:34:38;;;;;;;3.93;2.93;;;4.70;99.90;;;;;;5114409;28;20527;-74
2023/12/05 01:37:04;;;;;;;3.07;2.73;;;4.80;99.90;;;;;;5114075;28;20399;-73
2023/12/05 01:39:29;;;;;;;3.17;2.80;;;4.90;99.90;;;;;;5113957;28;20244;-73
2023/12/05 01:41:55;;;;;;;3.30;3.00;;;4.80;99.90;;;;;;5114264;28;20249;-73
2023/12/05 01:44:21;;;;;;;3.80;3.27;;;4.80;99.90;;;;;;5113518;28;20196;-73
2023/12/05 01:46:46;;;;;;;4.23;3.20;;;4.80;99.90;;;;;;5114232;28;20652;-73
2023/12/05 01:49:12;;;;;;;2.73;2.53;;;4.90;99.90;;;;;;5114486;28;20252;-73
2023/12/05 01:51:38;;;;;;;3.33;3.03;;;5.00;99.90;;;;;;5114391;28;20194;-74
2023/12/05 01:54:03;;;;;;;3.63;3.00;;;5.10;99.90;;;;;;5114096;28;20671;-74
2023/12/05 01:56:30;;;;;;;3.60;2.97;;;5.10;99.90;;;;;;5113966;28;20167;-73
2023/12/05 01:58:56;;;;;;;3.07;2.77;;;5.10;99.90;;;;;;5113682;28;20178;-72
2023/12/05 02:01:22;;;;;;;4.27;3.60;;;5.00;99.90;;;;;;5113899;28;20873;-73
2023/12/05 02:03:49;;;;;;;3.70;2.97;;;4.90;99.90;;;;;;5113693;28;20205;-73
2023/12/05 02:06:18;;;;;;;2.80;2.60;;;4.90;99.90;;;;;;5113925;28;20421;-72
2023/12/05 02:08:45;;;;;;;3.90;3.50;;;5.00;99.90;;;;;;5113501;28;20429;-73
2023/12/05 02:11:11;;;;;;;4.20;3.70;;;4.90;99.90;;;;;;5113523;28;20450;-73
2023/12/05 02:13:37;;;;;;;3.80;3.43;;;4.80;99.90;;;;;;5113598;28;20407;-73
2023/12/05 02:16:30;;;;;;;4.17;3.77;;;4.70;99.90;;;;;;5113366;28;20410;-73
2023/12/05 02:19:18;;;;;;;3.57;3.27;;;4.70;99.90;;;;;;5112210;28;20393;-72
2023/12/05 02:21:47;;;;;;;4.20;3.53;;;4.70;99.90;;;;;;5084134;28;20431;-72
2023/12/05 02:24:38;;;;;;;4.30;3.90;;;4.50;99.90;;;;;;5113473;28;20547;-72
2023/12/05 02:27:24;;;;;;;3.23;2.93;;;4.60;99.90;;;;;;5113681;28;20371;-72
2023/12/05 02:29:51;;;;;;;4.87;4.37;;;4.70;99.90;;;;;;5111814;28;20414;-72
2023/12/05 02:32:17;;;;;;;3.50;3.20;;;4.60;99.90;;;;;;5113369;28;20950;-73
2023/12/05 02:34:43;;;;;;;4.37;3.80;;;4.60;99.90;;;;;;5113615;28;20399;-73
2023/12/05 02:37:31;;;;;;;4.33;3.93;;;4.60;99.90;;;;;;5113158;28;20469;-73
2023/12/05 02:40:08;;;;;;;4.77;4.07;;;4.50;99.90;;;;;;5103685;28;20427;-73
2023/12/05 02:42:34;;;;;;;5.00;4.00;;;4.50;99.90;;;;;;5113720;28;20402;-73
2023/12/05 02:45:04;;;;;;;4.93;3.83;;;4.50;99.90;;;;;;5117602;28;20398;-73
2023/12/05 02:47:31;;;;;;;4.63;4.10;;;4.50;99.90;;;;;;5117175;28;20394;-73
2023/12/05 02:49:57;;;;;;;4.77;4.27;;;4.40;99.90;;;;;;5117674;28;20463;-72
2023/12/05 02:52:23;;;;;;;4.90;3.77;;;4.40;99.90;;;;;;5118153;28;20398;-73
2023/12/05 02:54:48;;;;;;;3.70;3.37;;;4.40;99.90;;;;;;5117337;28;20164;-73
2023/12/05 02:57:14;;;;;;;4.13;3.70;;;4.50;99.90;;;;;;5117341;28;20399;-73
2023/12/05 02:59:40;;;;;;;6.27;4.20;;;4.50;99.90;;;;;;5117629;28;20161;-73
2023/12/05 03:02:05;;;;;;;4.97;4.50;;;4.50;99.90;;;;;;5117281;28;20177;-73
2023/12/05 03:04:31;;;;;;;5.90;4.70;;;4.40;99.90;;;;;;5117078;28;20161;-73
2023/12/05 03:06:56;;;;;;;4.77;4.27;;;4.40;99.90;;;;;;5117237;28;20253;-73
2023/12/05 03:09:22;;;;;;;3.77;3.40;;;4.20;99.90;;;;;;5116672;28;20189;-73
2023/12/05 03:11:48;;;;;;;3.47;3.17;;;4.30;99.90;;;;;;5116808;28;20228;-73
2023/12/05 03:14:13;;;;;;;5.07;4.40;;;4.30;99.90;;;;;;5116809;28;20210;-73
2023/12/05 03:16:39;;;;;;;4.30;3.90;;;4.30;99.90;;;;;;5116743;28;20634;-73
2023/12/05 03:19:04;;;;;;;4.30;3.87;;;4.40;99.90;;;;;;5116612;28;20574;-73
2023/12/05 03:21:30;;;;;;;4.70;4.00;;;4.30;99.90;;;;;;5116644;28;20210;-73
2023/12/05 03:23:56;;;;;;;4.30;3.90;;;4.20;99.90;;;;;;5117205;28;20520;-71
2023/12/05 03:26:22;;;;;;;3.50;3.20;;;4.30;99.90;;;;;;5116859;28;20172;-73
2023/12/05 03:28:49;;;;;;;5.17;4.00;;;4.30;99.90;;;;;;5116611;28;20195;-73
2023/12/05 03:31:15;;;;;;;5.67;4.27;;;4.40;99.90;;;;;;5116679;28;20457;-73
2023/12/05 03:33:41;;;;;;;5.60;4.27;;;4.50;99.90;;;;;;5116477;28;20406;-73
2023/12/05 03:36:07;;;;;;;4.33;3.73;;;4.60;99.90;;;;;;5116535;28;20757;-73
2023/12/05 03:38:32;;;;;;;5.20;4.00;;;4.60;99.90;;;;;;5116106;28;20484;-73
2023/12/05 03:40:58;;;;;;;4.40;4.00;;;4.70;99.90;;;;;;5116119;28;20574;-73
2023/12/05 03:43:24;;;;;;;4.50;3.90;;;4.70;99.90;;;;;;5116272;28;20175;-72
2023/12/05 03:45:49;;;;;;;6.00;4.70;;;4.80;99.90;;;;;;5116163;28;20602;-72
2023/12/05 03:48:15;;;;;;;4.50;4.07;;;4.80;99.90;;;;;;5115607;28;20310;-72
2023/12/05 03:50:40;;;;;;;4.27;3.87;;;5.00;99.90;;;;;;5115947;28;20188;-72
2023/12/05 03:53:06;;;;;;;6.00;4.50;;;4.90;99.90;;;;;;5116456;28;20654;-72
2023/12/05 03:55:34;;;;;;;4.27;3.87;;;4.90;99.90;;;;;;5115116;28;20532;-72
2023/12/05 03:58:01;;;;;;;4.60;4.07;;;5.00;99.90;;;;;;5115932;28;20168;-72
2023/12/05 04:00:26;;;;;;;4.73;3.87;;;5.00;99.90;;;;;;5115894;28;20466;-72
2023/12/05 04:02:52;;;;;;;6.23;4.80;;;4.90;99.90;;;;;;5115963;28;20430;-73
2023/12/05 04:05:18;;;;;;;4.23;3.70;;;4.80;99.90;;;;;;5116406;28;20160;-73
2023/12/05 04:07:45;;;;;;;6.00;4.93;;;4.70;99.90;;;;;;5115832;28;20651;-72
2023/12/05 04:10:10;;;;;;;5.93;4.77;;;4.80;99.90;;;;;;5115452;28;20458;-72
2023/12/05 04:12:37;;;;;;;4.83;4.33;;;4.70;99.90;;;;;;5115607;28;20405;-73
2023/12/05 04:15:04;;;;;;;5.07;4.27;;;4.60;99.90;;;;;;5115680;28;20166;-72
2023/12/05 04:17:30;;;;;;;5.40;4.10;;;4.40;99.90;;;;;;5115454;28;20395;-71
2023/12/05 04:19:55;;;;;;;4.30;3.90;;;4.50;99.90;;;;;;5115409;28;20427;-71
2023/12/05 04:22:21;;;;;;;5.57;4.27;;;4.50;99.90;;;;;;5115173;28;20175;-72
2023/12/05 04:24:47;;;;;;;4.40;4.00;;;4.60;99.90;;;;;;5115776;28;20173;-72
2023/12/05 04:27:12;;;;;;;5.63;4.23;;;4.70;99.90;;;;;;5115659;28;20165;-73
2023/12/05 04:29:38;;;;;;;5.27;4.10;;;4.70;99.90;;;;;;5115536;28;20192;-73
2023/12/05 04:32:04;;;;;;;4.43;3.83;;;4.70;99.90;;;;;;5115296;28;20186;-73
2023/12/05 04:34:29;;;;;;;5.80;4.27;;;4.70;99.90;;;;;;5115158;28;20244;-72
2023/12/05 04:36:55;;;;;;;4.37;4.00;;;4.70;99.90;;;;;;5116051;28;20168;-73
2023/12/05 04:39:20;;;;;;;5.40;4.37;;;4.70;99.90;;;;;;5115410;28;20164;-73
2023/12/05 04:41:46;;;;;;;4.20;3.80;;;4.70;99.90;;;;;;5115440;28;20192;-73
2023/12/05 04:44:11;;;;;;;4.17;3.83;;;4.70;99.90;;;;;;5115041;28;20172;-73
2023/12/05 04:46:37;;;;;;;4.27;3.47;;;4.80;99.90;;;;;;5115288;28;20183;-73
2023/12/05 04:49:03;;;;;;;4.40;3.63;;;4.90;99.90;;;;;;5114929;28;20179;-72
2023/12/05 04:51:29;;;;;;;4.83;4.17;;;4.90;99.90;;;;;;5114854;28;20188;-73
2023/12/05 04:53:55;;;;;;;5.73;4.53;;;4.80;99.90;;;;;;5115156;28;20942;-73
2023/12/05 04:56:20;;;;;;;3.80;3.43;;;4.80;99.90;;;;;;5115371;28;20619;-73
2023/12/05 04:58:46;;;;;;;4.23;3.80;;;4.80;99.90;;;;;;5114911;28;20200;-73
2023/12/05 05:01:11;;;;;;;4.93;3.60;;;4.80;99.90;;;;;;5114943;28;20188;-74
2023/12/05 05:03:37;;;;;;;5.47;3.73;;;4.80;99.90;;;;;;5114815;28;20164;-74
2023/12/05 05:06:03;;;;;;;3.97;3.57;;;4.70;99.90;;;;;;5114618;28;20215;-74
2023/12/05 05:08:28;;;;;;;4.03;3.53;;;4.80;99.90;;;;;;5114434;28;20168;-74
2023/12/05 05:10:54;;;;;;;5.13;3.47;;;4.80;99.90;;;;;;5114754;28;20601;-73
2023/12/05 05:13:19;;;;;;;3.07;2.77;;;4.80;99.90;;;;;;5114594;28;20511;-74
2023/12/05 05:15:45;;;;;;;3.10;2.73;;;4.80;99.90;;;;;;5115064;28;20576;-74
2023/12/05 05:18:10;;;;;;;2.83;2.63;;;4.90;99.90;;;;;;5114971;28;20513;-73
2023/12/05 05:20:36;;;;;;;3.00;2.70;;;5.00;99.90;;;;;;5114590;28;20655;-74
2023/12/05 05:23:01;;;;;;;4.00;2.67;;;5.10;99.90;;;;;;5114367;28;20535;-74
2023/12/05 05:25:27;;;;;;;3.73;3.07;;;5.20;99.90;;;;;;5114213;28;20162;-73
2023/12/05 05:27:53;;;;;;;3.30;3.00;;;5.10;99.90;;;;;;5114485;28;20181;-74
2023/12/05 05:30:18;;;;;;;3.93;2.80;;;5.20;99.90;;;;;;5114209;28;20192;-74
2023/12/05 05:32:44;;;;;;;3.27;2.60;;;5.30;99.90;;;;;;5113136;28;20252;-74
2023/12/05 05:35:09;;;;;;;6.30;3.40;;;5.30;99.90;;;;;;5114087;28;20582;-73
2023/12/05 05:37:35;;;;;;;4.17;3.03;;;5.30;99.90;;;;;;5114173;28;20508;-74
2023/12/05 05:40:00;;;;;;;3.83;2.83;;;5.30;99.90;;;;;;5098461;28;20243;-74
2023/12/05 05:42:26;;;;;;;3.93;2.93;;;5.30;99.90;;;;;;5097946;28;20166;-74
2023/12/05 05:44:51;;;;;;;3.50;2.93;;;5.20;99.90;;;;;;5093581;28;20218;-73
2023/12/05 05:47:17;;;;;;;4.40;3.10;;;5.10;99.90;;;;;;5093603;28;20169;-74
2023/12/05 05:49:43;;;;;;;4.40;2.97;;;5.00;99.90;;;;;;5113291;28;20193;-73
2023/12/05 05:52:08;;;;;;;4.67;3.50;;;4.90;99.90;;;;;;5112468;28;20185;-74
2023/12/05 05:54:34;;;;;;;4.60;3.10;;;4.80;99.90;;;;;;5113804;28;20410;-74
2023/12/05 05:56:59;;;;;;;3.87;3.43;;;4.80;99.90;;;;;;5113961;28;20294;-74
2023/12/05 05:59:25;;;;;;;4.10;3.10;;;4.80;99.90;;;;;;5113672;28;20251;-73
2023/12/05 06:01:51;;;;;;;3.90;3.20;;;4.80;99.90;;;;;;5113689;28;20161;-74
2023/12/05 06:04:16;;;;;;;3.80;3.30;;;4.80;99.90;;;;;;5113607;28;20168;-72
2023/12/05 06:06:42;;;;;;;4.37;2.60;;;4.80;99.90;;;;;;5113726;28;20164;-73
2023/12/05 06:09:07;;;;;;;3.30;3.00;;;4.80;99.90;;;;;;5113508;28;20183;-74
2023/12/05 06:11:33;;;;;;;4.10;2.90;;;4.70;99.90;;;;;;5113720;28;20193;-74
2023/12/05 06:13:58;;;;;;;3.30;2.80;;;4.70;99.90;;;;;;5113932;28;20165;-73
2023/12/05 06:16:24;;;;;;;3.73;3.40;;;4.70;99.90;;;;;;5113393;28;20165;-75
2023/12/05 06:18:50;;;;;;;3.13;2.77;;;4.70;99.90;;;;;;5113079;28;20160;-74
2023/12/05 06:21:16;;;;;;;10.00;7.47;;;4.70;99.90;;;;;;5113245;28;20463;-74
2023/12/05 06:23:42;;;;;;;4.23;3.27;;;4.70;99.90;;;;;;5112086;28;20674;-74
2023/12/05 06:26:08;;;;;;;4.10;3.67;;;4.70;99.90;;;;;;5113714;28;20434;-74
2023/12/05 06:28:33;;;;;;;6.17;3.47;;;4.70;99.90;;;;;;5113692;28;20168;-74
2023/12/05 06:30:59;;;;;;;4.20;3.37;;;4.80;99.90;;;;;;5111821;28;20196;-74
2023/12/05 06:33:25;;;;;;;4.20;3.70;;;4.80;99.90;;;;;;5113321;28;20211;-74
2023/12/05 06:35:50;;;;;;;5.43;3.20;;;4.70;99.90;;;;;;5113785;28;20892;-75
2023/12/05 06:38:16;;;;;;;5.43;3.20;;;4.70;99.90;;;;;;5112205;28;20218;-74
2023/12/05 06:40:41;;;;;;;3.70;3.10;;;4.70;99.90;;;;;;5113333;28;20184;-74
2023/12/05 06:43:07;;;;;;;3.50;3.20;;;4.70;99.90;;;;;;5113296;28;20165;-74
2023/12/05 06:45:36;;;;;;;5.20;2.83;;;4.70;99.90;;;;;;5113208;28;20688;-74
2023/12/05 06:48:02;;;;;;;7.77;3.10;;;4.70;99.90;;;;;;5113373;28;20169;-74
2023/12/05 06:50:27;;;;;;;3.53;2.70;;;4.60;99.90;;;;;;5111879;28;20620;-74
2023/12/05 06:52:57;;;;;;;4.40;3.27;;;4.70;99.90;;;;;;5113895;28;20168;-74
2023/12/05 06:55:23;;;;;;;4.53;3.20;;;4.80;99.90;;;;;;5113083;28;20189;-74
2023/12/05 06:57:49;;;;;;;4.23;2.80;;;4.80;99.90;;;;;;5113380;28;20477;-74
2023/12/05 07:00:16;;;;;;;3.93;3.00;;;4.80;99.90;;;;;;5113528;28;20912;-73
2023/12/05 07:02:41;;;;;;;4.53;3.20;;;4.70;99.90;;;;;;5113048;28;20190;-74
2023/12/05 07:05:08;;;;;;;4.17;3.07;;;4.70;99.90;;;;;;5113517;28;20390;-75
2023/12/05 07:07:34;;;;;;;3.33;2.63;;;4.80;99.90;;;;;;5113444;28;20222;-74
2023/12/05 07:10:00;;;;;;;2.70;2.27;;;4.80;99.90;;;;;;5112962;28;20959;-74
2023/12/05 07:12:25;;;;;;;3.03;2.40;;;4.70;99.90;;;;;;5113120;28;20458;-74
2023/12/05 07:14:51;;;;;;;2.77;2.50;;;4.70;99.90;;;;;;5113162;28;20167;-74
2023/12/05 07:17:18;;;;;;;4.30;2.27;;;4.80;99.90;;;;;;5113041;28;20156;-74
2023/12/05 07:19:44;;;;;;;5.33;3.30;;;4.80;99.90;;;;;;5112721;28;20529;-73
2023/12/05 07:22:10;;;;;;;5.10;2.10;;;4.80;99.90;;;;;;5112879;28;20485;-73
2023/12/05 07:24:35;;;;;;;2.73;2.13;;;4.80;99.90;;;;;;5112995;28;20179;-73
2023/12/05 07:27:01;;;;;;;2.83;2.30;;;4.90;99.90;;;;;;5113037;28;20489;-73
2023/12/05 07:29:26;;;;;;;3.30;2.30;;;5.00;99.90;;;;;;5112939;28;20166;-74
2023/12/05 07:31:52;;;;;;;3.40;2.20;;;5.00;99.90;;;;;;5116677;28;20188;-73
2023/12/05 07:34:17;;;;;;;3.27;2.13;;;5.00;99.90;;;;;;5114628;28;20176;-74
2023/12/05 07:36:43;;;;;;;5.40;2.20;;;5.10;99.90;;;;;;5116395;28;20165;-73
2023/12/05 07:39:09;;;;;;;2.70;1.97;;;5.10;99.90;;;;;;5116421;28;20687;-74
2023/12/05 07:41:35;;;;;;;2.87;2.30;;;5.10;99.90;;;;;;5116158;28;20184;-73
2023/12/05 07:44:01;;;;;;;2.90;1.80;;;5.10;99.90;;;;;;5116163;28;20418;-73
2023/12/05 07:46:28;;;;;;;2.50;1.97;;;5.10;99.90;;;;;;5116687;28;20194;-74
2023/12/05 07:48:53;;;;;;;2.03;1.70;;;5.10;99.90;;;;;;5116433;28;20569;-73
2023/12/05 07:51:19;;;;;;;3.03;1.90;;;5.10;99.90;;;;;;5133954;22;20479;-73
2023/12/05 07:53:45;;;;;;;4.23;1.90;;;5.20;99.90;;;;;;5095792;28;20608;-73
2023/12/05 07:56:11;;;;;;;3.07;1.97;;;5.20;99.90;;;;;;5077400;28;20173;-74
2023/12/05 07:58:36;;;;;;;1.97;1.50;;;5.30;99.90;;;;;;5096208;28;20180;-73
2023/12/05 08:01:02;;;;;;;3.57;2.37;;;5.30;99.90;;;;;;5095777;28;20235;-73
2023/12/05 08:03:28;;;;;;;4.33;2.20;;;5.30;99.90;;;;;;5095783;28;20240;-73
2023/12/05 08:05:54;;;;;;;4.93;2.50;;;5.40;99.90;;;;;;5096140;28;20172;-73
2023/12/05 08:08:20;;;;;;;3.73;2.10;;;5.40;99.90;;;;;;5096032;28;20982;-73
2023/12/05 08:10:47;;;;;;;2.50;1.93;;;5.40;99.90;;;;;;5095530;28;20508;-72
2023/12/05 08:13:13;;;;;;;2.33;1.77;;;5.40;99.90;;;;;;5095930;28;20166;-73
2023/12/05 08:15:39;;;;;;;2.70;2.00;;;5.40;99.90;;;;;;5095683;28;20452;-73
2023/12/05 08:18:04;;;;;;;5.33;2.30;;;5.50;99.90;;;;;;5077533;28;20556;-73
2023/12/05 08:20:30;;;;;;;6.20;3.50;;;5.50;99.90;;;;;;5095333;28;20177;-73
2023/12/05 08:22:55;;;;;;;3.50;1.87;;;5.70;99.90;;;;;;5095659;28;20267;-73
2023/12/05 08:25:21;;;;;;;5.23;1.77;;;5.80;99.90;;;;;;5095540;28;20271;-73
2023/12/05 08:27:46;;;;;;;2.50;1.70;;;5.80;99.90;;;;;;5094843;28;20182;-73
2023/12/05 08:30:12;;;;;;;1.90;1.57;;;5.80;99.90;;;;;;5095172;28;20647;-73
2023/12/05 08:32:38;;;;;;;3.13;1.97;;;5.80;99.90;;;;;;5095248;28;20183;-72
2023/12/05 08:35:04;;;;;;;2.53;1.80;;;5.80;99.90;;;;;;5095661;28;20403;-73
2023/12/05 08:37:31;;;;;;;2.03;1.60;;;5.80;99.90;;;;;;5095325;28;20174;-73
2023/12/05 08:39:57;;;;;;;3.27;1.53;;;5.90;99.90;;;;;;5095602;28;20400;-72
2023/12/05 08:42:22;;;;;;;2.00;1.80;;;5.90;99.90;;;;;;5095104;28;20832;-74
2023/12/05 08:44:48;;;;;;;2.47;1.83;;;5.90;99.90;;;;;;5095120;28;20592;-73
2023/12/05 08:47:13;;;;;;;2.47;1.80;;;6.00;99.90;;;;;;5095157;28;20175;-73
2023/12/05 08:49:40;;;;;;;2.73;1.97;;;6.00;99.90;;;;;;5095140;28;20635;-73
2023/12/05 08:52:05;;;;;;;2.53;2.10;;;6.00;99.90;;;;;;5076890;28;20757;-73
2023/12/05 08:54:31;;;;;;;3.30;2.30;;;6.00;99.90;;;;;;5095209;28;20404;-74
2023/12/05 08:56:57;;;;;;;2.30;1.93;;;6.10;99.90;;;;;;5095027;28;20170;-73
2023/12/05 08:59:22;;;;;;;3.20;2.10;;;6.10;99.90;;;;;;5094635;28;20282;-73
2023/12/05 09:01:48;;;;;;;5.43;2.07;;;6.20;99.90;;;;;;5094750;28;20297;-73
2023/12/05 09:04:14;;;;;;;4.47;1.57;;;6.20;99.90;;;;;;5094768;28;20173;-72
2023/12/05 09:06:39;;;;;;;3.00;2.00;;;6.30;99.90;;;;;;5076484;28;20425;-73
2023/12/05 09:09:05;;;;;;;9.70;2.07;;;6.30;99.90;;;;;;5094754;28;20173;-72
2023/12/05 09:11:30;;;;;;;2.50;1.80;;;6.30;99.90;;;;;;5094666;28;20207;-73
2023/12/05 09:13:58;;;;;;;2.97;1.77;;;6.40;99.90;;;;;;5094812;28;20162;-73
2023/12/05 09:16:24;;;;;;;2.77;2.07;;;6.40;99.90;;;;;;5095097;28;20616;-73
2023/12/05 09:18:49;;;;;;;6.13;2.10;;;6.40;99.90;;;;;;5077024;28;20425;-73
2023/12/05 09:21:15;;;;;;;5.27;1.70;;;6.40;99.90;;;;;;5076268;28;20189;-73
2023/12/05 09:23:41;;;;;;;2.07;1.40;;;6.50;99.90;;;;;;5094601;28;20661;-73
2023/12/05 09:26:07;;;;;;;2.60;1.60;;;6.50;99.90;;;;;;5076205;28;20507;-73
2023/12/05 09:28:34;;;;;;;4.37;1.90;;;6.60;99.90;;;;;;5094636;28;20210;-73
2023/12/05 09:30:59;;;;;;;3.20;2.00;;;6.70;99.90;;;;;;5094062;28;20203;-72
2023/12/05 09:33:25;;;;;;;3.07;1.60;;;6.80;99.90;;;;;;5076236;28;20466;-73
2023/12/05 09:35:50;;;;;;;2.20;1.87;;;6.90;99.90;;;;;;5093707;28;20172;-73
2023/12/05 09:38:16;;;;;;;2.97;1.70;;;6.80;99.90;;;;;;5094687;28;20179;-73
2023/12/05 09:40:42;;;;;;;3.20;1.70;;;6.90;99.90;;;;;;5094216;28;20178;-72
2023/12/05 09:43:08;;;;;;;2.20;1.50;;;6.90;99.90;;;;;;5093851;28;20953;-73
2023/12/05 09:45:42;;;;;;;4.17;1.47;;;6.90;99.90;;;;;;5094030;28;20215;-73
2023/12/05 09:48:09;;;;;;;2.70;1.40;;;7.10;99.90;;;;;;5093813;28;20176;-72
2023/12/05 09:50:38;;;;;;;4.37;1.90;;;7.20;99.90;;;;;;5093725;28;20457;-74
2023/12/05 09:53:05;;;;;;;3.70;1.80;;;7.20;99.90;;;;;;5093587;28;20501;-73
2023/12/05 09:55:31;;;;;;;2.57;1.50;;;7.30;99.90;;;;;;5094024;28;20397;-73
2023/12/05 09:57:58;;;;;;;3.43;1.13;;;7.20;99.90;;;;;;5094103;28;20752;-73
2023/12/05 10:00:26;;;;;;;1.53;1.20;;;7.30;99.90;;;;;;5075343;28;20409;-73
2023/12/05 10:02:54;;;;;;;2.13;1.40;;;7.30;99.90;;;;;;5093620;28;20416;-73
2023/12/05 10:05:20;;;;;;;1.73;1.10;;;7.30;99.90;;;;;;5093875;28;20399;-73
2023/12/05 10:07:49;;;;;;;2.60;1.53;;;7.40;99.90;;;;;;5093542;28;20913;-74
2023/12/05 10:10:18;;;;;;;3.80;1.47;;;7.50;99.90;;;;;;5093826;28;20398;-73
2023/12/05 10:12:46;;;;;;;1.43;1.30;;;7.50;99.90;;;;;;5093918;28;20534;-73
2023/12/05 10:15:11;;;;;;;2.47;1.53;;;7.60;99.90;;;;;;5093267;28;20400;-73
2023/12/05 10:17:37;;;;;;;2.30;1.20;;;7.60;99.90;;;;;;5093609;28;20795;-73
2023/12/05 10:20:04;;;;;;;2.20;1.67;;;7.70;99.90;;;;;;5093303;28;20169;-73
2023/12/05 10:22:31;;;;;;;2.57;1.63;;;7.70;99.90;;;;;;5075433;28;20960;-73
2023/12/05 10:24:57;;;;;;;2.53;1.50;;;7.70;99.90;;;;;;5093655;28;20410;-73
2023/12/05 10:27:22;;;;;;;2.13;1.43;;;7.80;99.90;;;;;;5093655;28;20491;-72
2023/12/05 10:29:48;;;;;;;5.67;1.80;;;8.00;99.90;;;;;;5093613;28;20180;-73
2023/12/05 10:32:14;;;;;;;1.97;1.20;;;8.00;99.90;;;;;;5093321;28;20201;-73
2023/12/05 10:34:52;;;;;;;3.03;1.70;;;8.00;99.90;;;;;;5093641;28;20200;-73
2023/12/05 10:37:22;;;;;;;2.20;1.33;;;8.20;99.90;;;;;;5093310;28;20175;-72
2023/12/05 10:39:52;;;;;;;2.80;1.90;;;8.20;99.90;;;;;;5093300;28;20411;-72
2023/12/05 10:42:19;;;;;;;1.80;1.20;;;8.20;99.90;;;;;;5075121;28;20428;-73
2023/12/05 10:44:45;;;;;;;4.90;1.50;;;8.30;99.90;;;;;;5093220;28;20508;-72
2023/12/05 10:47:11;;;;;;;2.53;1.40;;;8.40;99.90;;;;;;5093443;28;20411;-72
2023/12/05 10:49:41;;;;;;;3.40;1.20;;;;;;;;;;5093200;28;20214;-73
2023/12/05 10:52:08;;;;;;;4.50;1.43;;;9.80;99.90;;;;;;5092808;28;20838;-72
2023/12/05 10:54:34;;;;;;;4.60;2.30;;;10.70;99.90;;;;;;5092849;28;20411;-72
2023/12/05 10:57:00;;;;;;;2.00;1.00;;;12.50;99.90;;;;;;5092940;28;20820;-73
2023/12/05 10:59:27;;;;;;;2.03;1.20;;;13.00;99.90;;;;;;5093320;28;20177;-73
2023/12/05 11:01:56;;;;;;;1.93;1.20;;;14.00;99.90;;;;;;5092266;28;20497;-73
2023/12/05 11:04:24;;;;;;;2.03;1.30;;;14.80;99.90;;;;;;5094763;28;20395;-73
2023/12/05 11:06:49;;;;;;;2.03;1.10;;;15.10;98.60;;;;;;5096962;28;20402;-72
2023/12/05 11:09:16;;;;;;;1.23;1.10;;;15.60;97.70;;;;;;5096937;28;20900;-73
2023/12/05 11:11:44;;;;;;;2.00;1.07;;;15.60;96.60;;;;;;5096665;28;20229;-72
2023/12/05 11:14:12;;;;;;;2.60;1.57;;;15.70;96.60;;;;;;5096313;28;20409;-73
2023/12/05 11:16:52;;;;;;;3.37;1.50;;;16.00;96.20;;;;;;5096776;28;20491;-74
2023/12/05 11:20:02;;;;;;;1.50;1.00;;;15.20;95.70;;;;;;5097845;28;20407;-72
2023/12/05 11:22:40;;;;;;;1.87;1.23;;;15.40;96.40;;;;;;5097214;28;20424;-73
2023/12/05 11:25:20;;;;;;;3.33;1.40;;;14.30;96.60;;;;;;5096475;28;20482;-73
2023/12/05 11:28:09;;;;;;;1.70;1.10;;;14.10;97.60;;;;;;5097013;28;20418;-74
2023/12/05 11:30:41;;;;;;;1.40;1.10;;;15.50;96.40;;;;;;5078249;28;20452;-73
2023/12/05 11:33:41;;;;;;;2.03;1.00;;;15.90;95.20;;;;;;5096842;28;20853;-74
2023/12/05 11:36:40;;;;;;;3.10;1.10;;;15.30;94.80;;;;;;5096633;28;20387;-72
2023/12/05 11:39:06;;;;;;;1.87;1.40;;;15.00;95.70;;;;;;5096619;28;20439;-73
2023/12/05 11:41:32;;;;;;;1.60;0.90;;;15.60;95.60;;;;;;5096066;28;20427;-73
2023/12/05 11:44:17;;;;;;;1.73;1.10;;;15.60;95.00;;;;;;5095693;28;20422;-73
2023/12/05 11:46:44;;;;;;;1.30;1.00;;;15.20;94.90;;;;;;5096357;28;20390;-73
2023/12/05 11:49:09;;;;;;;1.83;1.10;;;15.80;94.80;;;;;;5095980;28;20403;-73
2023/12/05 11:51:36;;;;;;;1.27;1.00;;;14.60;94.80;;;;;;5077509;28;20808;-73
2023/12/05 11:54:05;;;;;;;2.70;1.17;;;13.70;96.00;;;;;;5095788;28;20179;-74
2023/12/05 11:56:30;;;;;;;1.00;0.90;;;14.10;97.40;;;;;;5095924;28;20397;-73
2023/12/05 11:59:14;;;;;;;1.87;1.30;;;15.30;95.70;;;;;;5096133;28;20405;-75
2023/12/05 12:01:43;;;;;;;1.97;1.10;;;15.20;95.00;;;;;;5095866;28;20189;-73
2023/12/05 12:04:22;;;;;;;4.43;1.23;;;15.70;94.70;;;;;;5095776;28;20749;-74
2023/12/05 12:06:49;;;;;;;2.00;1.20;;;16.90;93.60;;;;;;5095990;28;20749;-74
2023/12/05 12:09:14;;;;;;;2.10;1.30;;;17.40;92.40;;;;;;5077769;28;20411;-74
2023/12/05 12:11:41;;;;;;;3.90;1.40;;;17.80;91.80;;;;;;5095180;28;20473;-73
2023/12/05 12:14:14;;;;;;;1.43;1.00;;;17.60;91.10;;;;;;5095706;28;20636;-73
2023/12/05 12:16:40;;;;;;;1.30;0.90;;;18.20;90.40;;;;;;5094626;28;20404;-73
2023/12/05 12:19:11;;;;;;;1.50;0.97;;;18.20;89.70;;;;;;5077085;28;20400;-74
2023/12/05 12:21:44;;;;;;;4.13;1.27;;;18.40;89.20;;;;;;5095618;28;20420;-73
2023/12/05 12:24:21;;;;;;;1.90;1.10;;;17.70;87.30;;;;;;5095791;28;20435;-73
2023/12/05 12:26:54;;;;;;;2.70;1.10;;;15.90;90.90;;;;;;5095299;28;20407;-73
2023/12/05 12:29:21;;;;;;;3.53;1.17;;;14.20;94.00;;;;;;5095277;28;20436;-73
2023/12/05 12:31:47;;;;;;;1.40;1.17;;;13.40;95.70;;;;;;5095066;28;20460;-73
2023/12/05 12:34:25;;;;;;;2.53;1.40;;;13.00;97.00;;;;;;5095672;28;20472;-73
2023/12/05 12:36:51;;;;;;;2.80;1.00;;;12.10;98.40;;;;;;5095580;28;20687;-73
2023/12/05 12:39:18;;;;;;;1.67;1.40;;;11.30;99.90;;;;;;5095454;28;20921;-74
2023/12/05 12:41:45;;;;;;;4.00;1.63;;;10.90;99.90;;;;;;5095449;28;20428;-74
2023/12/05 12:44:13;;;;;;;3.47;1.17;;;10.60;99.90;;;;;;5095073;28;20422;-73
2023/12/05 12:46:42;;;;;;;1.43;1.20;;;10.30;99.90;;;;;;5095227;28;20482;-73
2023/12/05 12:49:08;;;;;;;1.97;1.27;;;9.90;99.90;;;;;;5095897;28;20407;-73
2023/12/05 12:51:35;;;;;;;1.40;0.97;;;9.50;99.90;;;;;;5098012;28;20470;-74
2023/12/05 12:54:01;;;;;;;1.40;1.20;;;9.40;99.90;;;;;;5101023;28;20413;-73
2023/12/05 12:56:31;;;;;;;1.93;1.20;;;9.30;99.90;;;;;;5107358;28;20405;-73
2023/12/05 12:59:01;;;;;;;2.17;1.20;;;9.10;99.90;;;;;;5098250;28;20380;-72